createdAt,value
2023-03-31T00:02:39.060Z,100137.81
2023-03-31T00:06:01.254Z,100125.59
2023-03-31T00:09:35.787Z,100133.53
2023-03-31T00:12:51.414Z,100129.75
2023-03-31T00:16:18.611Z,100128.19
2023-03-31T00:19:52.441Z,100128.66
2023-03-31T00:23:11.215Z,100123.88
2023-03-31T00:26:37.983Z,100117.00
2023-03-31T00:30:05.549Z,100114.91
2023-03-31T00:33:26.719Z,100115.41
2023-03-31T00:36:51.189Z,100109.00
2023-03-31T00:40:10.842Z,100115.59
2023-03-31T00:43:30.314Z,100119.94
2023-03-31T00:47:34.471Z,100112.63
2023-03-31T00:51:08.541Z,100106.56
2023-03-31T00:54:28.062Z,100103.28
2023-03-31T00:57:48.480Z,100107.56
2023-03-31T01:01:25.030Z,100104.47
2023-03-31T01:04:51.121Z,100105.06
2023-03-31T01:08:20.293Z,100112.09
2023-03-31T01:11:48.620Z,100120.75
2023-03-31T01:15:07.406Z,100107.91
2023-03-31T01:18:40.873Z,100112.50
2023-03-31T01:22:50.258Z,100105.63
2023-03-31T01:26:39.466Z,100097.25
2023-03-31T01:30:34.556Z,100103.81
2023-03-31T01:34:28.873Z,100094.53
2023-03-31T01:38:21.332Z,100101.34
2023-03-31T01:41:55.905Z,100104.31
2023-03-31T01:45:59.537Z,100099.09
2023-03-31T01:49:45.106Z,100102.78
2023-03-31T01:53:17.468Z,100094.56
2023-03-31T01:57:05.678Z,100093.34
2023-03-31T02:00:40.282Z,100103.50
2023-03-31T02:04:38.091Z,100091.25
2023-03-31T02:07:54.984Z,100102.91
2023-03-31T02:11:17.088Z,100093.44
2023-03-31T02:14:47.754Z,100097.66
2023-03-31T02:18:14.373Z,100096.78
2023-03-31T02:21:50.604Z,100103.31
2023-03-31T02:25:20.088Z,100097.63
2023-03-31T02:28:40.990Z,100088.13
2023-03-31T02:32:34.128Z,100085.66
2023-03-31T02:36:09.496Z,100085.47
2023-03-31T02:39:47.537Z,100092.81
2023-03-31T02:43:12.115Z,100096.38
2023-03-31T02:46:40.456Z,100087.03
2023-03-31T02:50:06.115Z,100072.97
2023-03-31T02:53:55.045Z,100078.25
2023-03-31T02:57:34.023Z,100085.34
2023-03-31T03:01:19.835Z,100089.97
2023-03-31T03:05:03.964Z,100075.59
2023-03-31T03:08:50.629Z,100066.34
2023-03-31T03:12:29.355Z,100058.91
2023-03-31T03:15:56.376Z,100063.47
2023-03-31T03:19:23.910Z,100068.06
2023-03-31T03:22:41.298Z,100062.66
2023-03-31T03:26:11.414Z,100062.53
2023-03-31T03:29:38.434Z,100057.72
2023-03-31T03:33:18.977Z,100049.28
2023-03-31T03:36:50.668Z,100055.34
2023-03-31T03:40:23.762Z,100052.34
2023-03-31T03:43:38.257Z,100054.31
2023-03-31T03:47:15.310Z,100057.37
2023-03-31T03:50:52.973Z,100043.91
2023-03-31T03:54:27.174Z,100047.34
2023-03-31T03:57:54.990Z,100050.56
2023-03-31T04:01:09.693Z,100053.09
2023-03-31T04:04:34.254Z,100055.09
2023-03-31T04:07:55.258Z,100051.22
2023-03-31T04:11:28.260Z,100049.81
2023-03-31T04:14:51.320Z,100045.84
2023-03-31T04:18:24.945Z,100053.72
2023-03-31T04:21:47.165Z,100047.78
2023-03-31T04:25:15.214Z,100042.31
2023-03-31T04:28:51.120Z,100040.47
2023-03-31T04:32:23.349Z,100041.16
2023-03-31T04:35:50.002Z,100041.72
2023-03-31T04:39:16.394Z,100045.72
2023-03-31T04:42:45.448Z,100045.44
2023-03-31T04:46:22.232Z,100057.44
2023-03-31T04:50:01.093Z,100054.81
2023-03-31T04:53:39.089Z,100051.53
2023-03-31T04:56:59.536Z,100050.19
2023-03-31T05:00:27.084Z,100039.44
2023-03-31T05:04:01.268Z,100038.50
2023-03-31T05:07:45.507Z,100035.00
2023-03-31T05:10:56.731Z,100032.81
2023-03-31T05:14:27.632Z,100028.13
2023-03-31T05:18:02.094Z,100019.69
2023-03-31T05:21:38.076Z,100016.34
2023-03-31T05:25:13.392Z,100012.78
2023-03-31T05:28:32.539Z,100014.63
2023-03-31T05:31:54.104Z,100014.03
2023-03-31T05:35:43.281Z,100020.19
2023-03-31T05:39:36.942Z,100021.19
2023-03-31T05:43:19.016Z,100019.38
2023-03-31T05:46:55.756Z,100026.25
2023-03-31T05:50:23.642Z,100025.81
2023-03-31T05:53:59.417Z,100013.87
2023-03-31T05:57:46.590Z,100018.66
2023-03-31T06:01:23.231Z,100007.06
2023-03-31T06:05:00.907Z,100003.19
2023-03-31T06:08:40.965Z,99997.84
2023-03-31T06:12:05.801Z,100003.00
2023-03-31T06:15:40.063Z,100003.78
2023-03-31T06:19:21.459Z,100003.09
2023-03-31T06:22:56.308Z,100000.09
2023-03-31T06:26:18.970Z,99990.12
2023-03-31T06:29:52.886Z,99999.50
2023-03-31T06:33:26.909Z,99991.00
2023-03-31T06:36:46.446Z,99997.84
2023-03-31T06:40:23.183Z,99990.34
2023-03-31T06:43:58.786Z,99990.41
2023-03-31T06:47:27.096Z,99996.59
2023-03-31T06:51:02.852Z,99989.78
2023-03-31T06:54:37.626Z,99999.31
2023-03-31T06:57:52.574Z,100003.88
2023-03-31T07:01:27.989Z,100004.16
2023-03-31T07:04:56.642Z,100021.16
2023-03-31T07:08:24.504Z,100020.66
2023-03-31T07:12:05.591Z,100020.13
2023-03-31T07:15:32.165Z,100017.47
2023-03-31T07:18:50.599Z,100009.72
2023-03-31T07:22:23.978Z,100014.53
2023-03-31T07:25:43.522Z,100004.62
2023-03-31T07:29:20.664Z,100004.75
2023-03-31T07:32:40.212Z,99999.28
2023-03-31T07:36:10.831Z,99994.47
2023-03-31T07:39:26.488Z,99985.31
2023-03-31T07:42:52.553Z,99982.81
2023-03-31T07:46:27.399Z,99972.41
2023-03-31T07:49:45.339Z,99968.75
2023-03-31T07:53:23.770Z,99965.41
2023-03-31T07:56:53.158Z,99958.28
2023-03-31T08:00:16.263Z,99953.75
2023-03-31T08:03:55.843Z,99955.72
2023-03-31T08:07:31.158Z,99957.88
2023-03-31T08:10:51.323Z,99956.72
2023-03-31T08:14:16.501Z,99947.94
2023-03-31T08:17:42.599Z,99942.41
2023-03-31T08:21:20.158Z,99935.13
2023-03-31T08:24:45.425Z,99924.06
2023-03-31T08:28:02.074Z,99919.69
2023-03-31T08:31:26.738Z,99920.34
2023-03-31T08:34:43.932Z,99916.69
2023-03-31T08:38:01.713Z,99910.59
2023-03-31T08:41:41.912Z,99902.53
2023-03-31T08:45:01.657Z,99891.38
2023-03-31T08:48:45.473Z,99892.66
2023-03-31T08:52:20.316Z,99888.03
2023-03-31T08:55:59.699Z,99876.34
2023-03-31T08:59:45.243Z,99864.97
2023-03-31T09:03:19.096Z,99861.84
2023-03-31T09:07:04.142Z,99855.22
2023-03-31T09:10:56.479Z,99851.84
2023-03-31T09:14:35.655Z,99840.47
2023-03-31T09:17:58.289Z,99835.44
2023-03-31T09:21:51.960Z,99827.91
2023-03-31T09:25:43.251Z,99827.59
2023-03-31T09:29:31.965Z,99821.81
2023-03-31T09:33:13.329Z,99807.12
2023-03-31T09:36:55.596Z,99808.91
2023-03-31T09:40:22.573Z,99801.44
2023-03-31T09:43:52.822Z,99794.56
2023-03-31T09:47:29.804Z,99789.13
2023-03-31T09:51:09.552Z,99783.19
2023-03-31T09:54:52.020Z,99783.03
2023-03-31T09:58:26.311Z,99776.31
2023-03-31T10:02:00.439Z,99770.31
2023-03-31T10:05:37.785Z,99765.84
2023-03-31T10:09:10.440Z,99768.34
2023-03-31T10:12:37.602Z,99760.66
2023-03-31T10:16:53.691Z,99740.56
2023-03-31T10:20:02.712Z,99743.63
2023-03-31T10:23:51.374Z,99732.22
2023-03-31T10:27:21.386Z,99726.28
2023-03-31T10:30:45.083Z,99723.56
2023-03-31T10:34:19.090Z,99720.28
2023-03-31T10:37:37.313Z,99720.94
2023-03-31T10:41:00.555Z,99712.06
2023-03-31T10:44:37.966Z,99706.16
2023-03-31T10:48:02.038Z,99703.75
2023-03-31T10:55:36.024Z,99695.87
2023-03-31T10:59:06.731Z,99690.72
2023-03-31T11:02:48.722Z,99683.53
2023-03-31T11:06:34.438Z,99687.59
2023-03-31T11:10:29.777Z,99674.66
2023-03-31T11:14:20.539Z,99674.38
2023-03-31T11:18:06.138Z,99667.75
2023-03-31T11:21:59.988Z,99662.81
2023-03-31T11:25:35.832Z,99657.28
2023-03-31T11:29:26.222Z,99650.34
2023-03-31T11:33:06.242Z,99639.44
2023-03-31T11:36:57.611Z,99614.44
2023-03-31T11:40:35.030Z,99614.59
2023-03-31T11:44:11.064Z,99595.59
2023-03-31T11:47:49.267Z,99595.50
2023-03-31T11:51:14.790Z,99573.25
2023-03-31T11:55:27.499Z,99572.56
2023-03-31T11:58:53.470Z,99556.56
2023-03-31T12:02:19.190Z,99549.13
2023-03-31T12:05:49.820Z,99551.28
2023-03-31T12:09:41.022Z,99545.56
2023-03-31T12:13:34.675Z,99533.78
2023-03-31T12:16:54.571Z,99533.19
2023-03-31T12:20:47.516Z,99530.19
2023-03-31T12:24:15.326Z,99527.31
2023-03-31T12:27:50.107Z,99527.22
2023-03-31T12:31:15.126Z,99518.78
2023-03-31T12:35:00.357Z,99527.28
2023-03-31T12:38:28.732Z,99515.47
2023-03-31T12:42:11.267Z,99509.72
2023-03-31T12:45:33.811Z,99490.59
2023-03-31T12:49:20.305Z,99494.47
2023-03-31T12:52:53.203Z,99488.28
2023-03-31T12:56:49.212Z,99474.44
2023-03-31T13:00:12.771Z,99474.47
2023-03-31T13:03:49.361Z,99461.38
2023-03-31T13:07:46.586Z,99460.06
2023-03-31T13:11:37.592Z,99456.81
2023-03-31T13:15:14.992Z,99453.69
2023-03-31T13:18:56.257Z,99449.44
2023-03-31T13:22:47.551Z,99436.56
2023-03-31T13:26:35.733Z,99422.69
2023-03-31T13:29:52.228Z,99411.31
2023-03-31T13:33:12.047Z,99415.19
2023-03-31T13:36:57.244Z,99404.84
2023-03-31T13:40:25.216Z,99394.50
2023-03-31T13:43:43.873Z,99391.00
2023-03-31T13:46:57.492Z,99380.88
2023-03-31T13:50:11.092Z,99373.66
2023-03-31T13:53:40.480Z,99355.50
2023-03-31T13:57:14.476Z,99342.50
2023-03-31T14:00:33.093Z,99338.66
2023-03-31T14:03:55.567Z,99348.59
2023-03-31T14:07:07.799Z,99340.03
2023-03-31T14:10:36.630Z,99346.37
2023-03-31T14:13:43.548Z,99346.88
2023-03-31T14:17:02.905Z,99339.81
2023-03-31T14:20:31.581Z,99320.94
2023-03-31T14:23:58.993Z,99311.88
2023-03-31T14:27:48.658Z,99301.94
2023-03-31T14:31:24.099Z,99287.41
2023-03-31T14:34:33.167Z,99283.56
2023-03-31T14:37:38.815Z,99269.31
2023-03-31T14:40:57.797Z,99254.47
2023-03-31T14:44:13.000Z,99261.13
2023-03-31T14:47:28.659Z,99264.09
2023-03-31T14:50:37.435Z,99259.00
2023-03-31T14:53:40.838Z,99250.00
2023-03-31T14:56:55.374Z,99238.75
2023-03-31T15:00:01.285Z,99250.91
2023-03-31T15:03:15.521Z,99241.69
2023-03-31T15:06:22.478Z,99249.78
2023-03-31T15:09:35.069Z,99244.09
2023-03-31T15:12:38.577Z,99251.50
2023-03-31T15:16:31.730Z,99246.78
2023-03-31T15:19:36.233Z,99253.94
2023-03-31T15:22:49.233Z,99239.50
2023-03-31T15:26:15.614Z,99233.47
2023-03-31T15:29:36.948Z,99240.16
2023-03-31T15:32:40.436Z,99257.88
2023-03-31T15:35:46.858Z,99254.59
2023-03-31T15:38:57.532Z,99245.03
2023-03-31T15:42:08.574Z,99224.16
2023-03-31T15:45:31.380Z,99221.97
2023-03-31T15:48:48.741Z,99214.88
2023-03-31T15:51:54.536Z,99210.66
2023-03-31T15:55:22.555Z,99204.69
2023-03-31T15:58:56.453Z,99203.88
2023-03-31T16:02:01.247Z,99202.63
2023-03-31T16:08:48.836Z,99189.88
2023-03-31T16:11:56.594Z,99190.19
2023-03-31T16:15:28.420Z,99189.25
2023-03-31T16:18:54.602Z,99186.91
2023-03-31T16:22:02.512Z,99187.56
2023-03-31T16:25:14.515Z,99184.84
2023-03-31T16:28:24.750Z,99180.69
2023-03-31T16:31:42.497Z,99177.19
2023-03-31T16:35:05.911Z,99167.72
2023-03-31T16:38:12.800Z,99178.31
2023-03-31T16:41:19.474Z,99195.19
2023-03-31T16:44:22.309Z,99197.94
2023-03-31T16:47:35.017Z,99216.69
2023-03-31T16:50:44.799Z,99220.88
2023-03-31T16:53:48.650Z,99224.59
2023-03-31T16:57:11.334Z,99230.81
2023-03-31T17:00:19.618Z,99230.94
2023-03-31T17:03:23.333Z,99224.34
2023-03-31T17:06:31.362Z,99223.28
2023-03-31T17:09:34.000Z,99242.81
2023-03-31T17:12:41.848Z,99225.09
2023-03-31T17:15:49.625Z,99223.50
2023-03-31T17:19:18.482Z,99223.25
2023-03-31T17:22:41.799Z,99230.44
2023-03-31T17:25:53.738Z,99224.53
2023-03-31T17:28:57.503Z,99231.44
2023-03-31T17:32:25.721Z,99226.03
2023-03-31T17:35:28.827Z,99213.66
2023-03-31T17:38:32.763Z,99211.56
2023-03-31T17:41:55.578Z,99207.94
2023-03-31T17:45:20.747Z,99195.22
2023-03-31T17:48:26.677Z,99194.84
2023-03-31T17:51:32.846Z,99190.88
2023-03-31T17:54:35.829Z,99184.81
2023-03-31T17:58:13.895Z,99179.84
2023-03-31T18:01:22.081Z,99187.25
2023-03-31T18:04:29.676Z,99198.75
2023-03-31T18:07:36.155Z,99195.13
2023-03-31T18:10:46.329Z,99191.22
2023-03-31T18:14:12.124Z,99197.78
2023-03-31T18:17:25.299Z,99209.16
2023-03-31T18:20:48.895Z,99210.75
2023-03-31T18:23:57.603Z,99207.69
2023-03-31T18:27:00.728Z,99212.09
2023-03-31T18:30:08.663Z,99204.22
2023-03-31T18:33:33.872Z,99218.38
2023-03-31T18:36:42.503Z,99218.38
2023-03-31T18:39:51.676Z,99225.03
2023-03-31T18:42:55.930Z,99220.50
2023-03-31T18:46:01.413Z,99214.41
2023-03-31T18:49:05.945Z,99211.56
2023-03-31T18:52:08.889Z,99214.03
2023-03-31T18:55:23.391Z,99210.84
2023-03-31T18:58:48.726Z,99222.44
2023-03-31T19:01:56.850Z,99213.00
2023-03-31T19:05:02.269Z,99214.69
2023-03-31T19:08:08.518Z,99208.78
2023-03-31T19:11:16.217Z,99208.81
2023-03-31T19:14:19.716Z,99208.87
2023-03-31T19:17:22.852Z,99213.53
2023-03-31T19:20:47.235Z,99219.84
2023-03-31T19:24:10.076Z,99213.00
2023-03-31T19:27:39.642Z,99210.66
2023-03-31T19:31:07.188Z,99213.31
2023-03-31T19:34:11.789Z,99219.97
2023-03-31T19:37:17.647Z,99230.84
2023-03-31T19:40:57.257Z,99233.22
2023-03-31T19:44:26.106Z,99233.69
2023-03-31T19:48:16.458Z,99236.22
2023-03-31T19:51:56.300Z,99240.09
2023-03-31T19:55:13.719Z,99239.16
2023-03-31T19:58:39.841Z,99237.50
2023-03-31T20:02:08.138Z,99239.72
2023-03-31T20:09:28.066Z,99236.28
2023-03-31T20:12:56.802Z,99234.34
2023-03-31T20:16:31.970Z,99227.84
2023-03-31T20:19:59.647Z,99228.22
2023-03-31T20:23:34.888Z,99227.78
2023-03-31T20:26:50.826Z,99227.84
2023-03-31T20:30:18.187Z,99209.66
2023-03-31T20:33:46.327Z,99217.38
2023-03-31T20:37:30.294Z,99201.56
2023-03-31T20:41:06.005Z,99198.97
2023-03-31T20:44:33.518Z,99204.03
2023-03-31T20:47:37.920Z,99196.41
2023-03-31T20:51:09.847Z,99182.69
2023-03-31T20:54:51.835Z,99182.16
2023-03-31T20:58:22.485Z,99180.88
2023-03-31T21:01:40.120Z,99176.13
2023-03-31T21:05:07.682Z,99174.28
2023-03-31T21:08:43.404Z,99166.12
2023-03-31T21:12:02.245Z,99167.44
2023-03-31T21:15:36.329Z,99165.88
2023-03-31T21:19:11.177Z,99160.84
2023-03-31T21:22:53.699Z,99159.00
2023-03-31T21:26:25.646Z,99153.47
2023-03-31T21:29:59.482Z,99155.84
2023-03-31T21:33:17.723Z,99145.81
2023-03-31T21:36:53.644Z,99139.50
2023-03-31T21:40:29.871Z,99136.84
2023-03-31T21:43:56.381Z,99143.75
2023-03-31T21:47:23.740Z,99138.97
2023-03-31T21:50:41.299Z,99154.78
2023-03-31T21:54:08.338Z,99155.87
2023-03-31T21:57:42.218Z,99169.59
2023-03-31T22:01:10.168Z,99163.53
2023-03-31T22:04:39.159Z,99175.69
2023-03-31T22:08:07.594Z,99165.38
2023-03-31T22:11:33.908Z,99171.19
2023-03-31T22:14:51.563Z,99164.34
2023-03-31T22:18:08.687Z,99177.78
2023-03-31T22:21:35.970Z,99179.13
2023-03-31T22:25:00.133Z,99172.53
2023-03-31T22:28:39.406Z,99166.47
2023-03-31T22:31:56.357Z,99150.62
2023-03-31T22:35:28.913Z,99159.06
2023-03-31T22:38:43.978Z,99154.87
2023-03-31T22:42:08.436Z,99146.44
2023-03-31T22:45:38.175Z,99146.94
2023-03-31T22:48:55.642Z,99153.81
2023-03-31T22:52:22.400Z,99155.37
2023-03-31T22:55:54.448Z,99151.41
2023-03-31T22:59:16.173Z,99145.09
2023-03-31T23:03:07.784Z,99135.34
2023-03-31T23:06:34.793Z,99138.53
2023-03-31T23:10:22.977Z,99130.09
2023-03-31T23:13:37.733Z,99136.19
2023-03-31T23:17:10.756Z,99120.62
2023-03-31T23:20:29.763Z,99119.84
2023-03-31T23:24:01.882Z,99123.25
2023-03-31T23:27:16.676Z,99120.06
2023-03-31T23:30:57.309Z,99125.34
2023-03-31T23:34:23.754Z,99130.63
2023-03-31T23:37:55.433Z,99128.78
2023-03-31T23:41:35.303Z,99125.88
2023-03-31T23:44:52.322Z,99130.59
2023-03-31T23:48:43.136Z,99131.69
2023-03-31T23:51:57.783Z,99142.75
2023-03-31T23:55:25.070Z,99146.44
2023-03-31T23:58:52.350Z,99138.00
